Time;durP1;ratioP1;P1;durP2;ratioP2;P2;SDS_P1;SDS_P2;PMS_P1;PMS_P2;Temp;Humidity;BMP_temperature;BMP_pressure;BME280_temperature;BME280_humidity;BME280_pressure;Samples;Min_cycle;Max_cycle;Signal;HPM_P1;HPM_P2
2023/07/24 00:00:52;;;;;;;7.18;2.15;;;;;;;13.64;100.00;100247.94;5026624;28;20065;-63
2023/07/24 00:03:18;;;;;;;11.50;2.40;;;;;;;13.69;100.00;100243.25;5028371;28;20041;-63
2023/07/24 00:05:45;;;;;;;13.35;2.13;;;;;;;13.70;100.00;100250.19;5028610;28;20458;-64
2023/07/24 00:08:12;;;;;;;15.45;2.90;;;;;;;13.64;100.00;100235.59;5036532;28;20049;-63
2023/07/24 00:10:39;;;;;;;12.57;2.20;;;;;;;13.71;100.00;100249.25;5025812;28;20063;-63
2023/07/24 00:13:05;;;;;;;9.90;2.00;;;;;;;13.59;100.00;100242.91;5028773;28;20108;-63
2023/07/24 00:15:32;;;;;;;12.88;2.40;;;;;;;13.60;100.00;100228.00;5028440;28;20495;-63
2023/07/24 00:17:58;;;;;;;10.27;1.90;;;;;;;13.60;100.00;100242.00;5018471;28;20061;-63
2023/07/24 00:20:26;;;;;;;8.65;1.83;;;;;;;13.58;100.00;100241.25;5021451;28;20058;-63
2023/07/24 00:22:52;;;;;;;11.48;2.55;;;;;;;13.52;100.00;100236.31;5027860;28;20056;-64
2023/07/24 00:25:19;;;;;;;8.68;2.20;;;;;;;13.41;100.00;100236.94;5028249;28;21746;-63
2023/07/24 00:27:46;;;;;;;8.50;2.10;;;;;;;13.29;100.00;100237.59;5015160;28;20056;-64
2023/07/24 00:30:12;;;;;;;9.27;1.88;;;;;;;13.32;100.00;100237.47;5024277;28;20132;-64
2023/07/24 00:32:39;;;;;;;12.00;2.13;;;;;;;13.45;100.00;100245.50;5030433;28;20099;-64
2023/07/24 00:35:06;;;;;;;5.20;1.58;;;;;;;13.50;100.00;100225.03;5031920;28;20053;-64
2023/07/24 00:37:33;;;;;;;11.63;1.90;;;;;;;13.62;100.00;100237.50;5034537;28;20053;-64
2023/07/24 00:40:00;;;;;;;8.65;2.35;;;;;;;13.29;100.00;100234.97;5040536;28;20057;-64
2023/07/24 00:42:26;;;;;;;6.38;1.88;;;;;;;13.51;100.00;100229.38;5031386;28;20057;-64
2023/07/24 00:44:53;;;;;;;7.82;2.15;;;;;;;13.30;100.00;100224.38;5025208;28;20454;-64
2023/07/24 00:47:20;;;;;;;10.77;1.90;;;;;;;13.35;100.00;100223.28;5025011;28;20072;-64
2023/07/24 00:49:48;;;;;;;12.07;2.22;;;;;;;13.19;100.00;100237.31;5012857;28;20084;-64
2023/07/24 00:52:15;;;;;;;10.80;2.08;;;;;;;13.29;100.00;100227.09;5024020;28;20520;-64
2023/07/24 00:54:43;;;;;;;9.27;2.05;;;;;;;13.15;100.00;100235.75;5027322;28;20050;-64
2023/07/24 00:57:10;;;;;;;4.82;1.60;;;;;;;13.37;100.00;100231.94;5022004;28;20049;-64
2023/07/24 00:59:37;;;;;;;11.52;2.33;;;;;;;13.24;100.00;100235.25;5031260;28;20054;-63
2023/07/24 01:02:04;;;;;;;6.28;1.58;;;;;;;13.34;100.00;100237.41;5036358;28;20053;-64
2023/07/24 01:04:31;;;;;;;9.52;2.33;;;;;;;13.24;100.00;100226.50;5040786;28;20053;-64
2023/07/24 01:06:58;;;;;;;8.40;2.55;;;;;;;12.97;100.00;100223.66;5031383;28;20091;-64
2023/07/24 01:09:24;;;;;;;9.73;2.22;;;;;;;13.05;100.00;100227.56;5042474;28;20057;-64
2023/07/24 01:12:34;;;;;;;8.10;1.98;;;;;;;13.07;100.00;100223.06;5029274;28;20462;-63
2023/07/24 01:15:16;;;;;;;8.70;2.10;;;;;;;13.02;100.00;100225.09;5018477;28;20053;-64
2023/07/24 01:17:49;;;;;;;9.48;2.15;;;;;;;12.85;100.00;100225.19;5019064;28;20045;-64
2023/07/24 01:20:17;;;;;;;9.25;2.33;;;;;;;12.78;100.00;100219.41;5026339;28;20046;-64
2023/07/24 01:23:08;;;;;;;6.43;2.00;;;;;;;12.84;100.00;100223.50;5030751;28;20050;-64
2023/07/24 01:25:46;;;;;;;8.80;1.90;;;;;;;12.69;100.00;100217.28;5030710;28;20053;-64
2023/07/24 01:28:12;;;;;;;11.63;2.05;;;;;;;12.79;100.00;100218.47;5031319;28;20053;-64
2023/07/24 01:30:39;;;;;;;11.98;1.80;;;;;;;12.68;100.00;100223.50;5027581;28;20487;-64
2023/07/24 01:33:06;;;;;;;12.40;2.20;;;;;;;12.69;100.00;100212.03;5030984;28;20175;-64
2023/07/24 01:35:33;;;;;;;5.55;1.67;;;;;;;12.58;100.00;100217.88;5030861;28;20132;-63
2023/07/24 01:38:00;;;;;;;6.85;2.22;;;;;;;12.73;100.00;100222.31;5030892;28;20044;-64
2023/07/24 01:40:27;;;;;;;6.65;1.55;;;;;;;12.84;100.00;100213.81;5010286;28;20045;-64
2023/07/24 01:42:54;;;;;;;8.43;2.00;;;;;;;12.76;100.00;100212.56;5030685;28;20297;-64
2023/07/24 01:45:20;;;;;;;7.60;1.98;;;;;;;12.75;100.00;100219.59;5019336;28;20494;-64
2023/07/24 01:47:47;;;;;;;6.72;1.85;;;;;;;12.68;100.00;100215.59;5027672;28;20053;-64
2023/07/24 01:50:14;;;;;;;6.05;1.88;;;;;;;12.63;100.00;100207.97;5025844;28;20081;-64
2023/07/24 01:52:40;;;;;;;7.40;1.88;;;;;;;12.43;100.00;100205.56;5030402;28;20056;-65
2023/07/24 01:55:08;;;;;;;7.82;1.98;;;;;;;12.40;100.00;100208.38;5030697;28;20469;-64
2023/07/24 01:57:35;;;;;;;7.55;2.05;;;;;;;12.37;100.00;100201.50;5030374;28;20430;-64
2023/07/24 02:00:02;;;;;;;9.23;1.80;;;;;;;12.46;100.00;100200.16;5017356;28;20921;-64
2023/07/24 02:02:29;;;;;;;5.82;1.80;;;;;;;12.52;100.00;100192.81;5022529;28;20103;-65
2023/07/24 02:04:55;;;;;;;6.20;1.95;;;;;;;12.47;100.00;100196.63;5030599;28;20053;-64
2023/07/24 02:07:22;;;;;;;7.28;1.90;;;;;;;12.31;100.00;100192.19;5030672;28;20136;-64
2023/07/24 02:09:49;;;;;;;9.20;1.80;;;;;;;12.22;100.00;100190.06;5028805;28;20049;-64
2023/07/24 02:12:16;;;;;;;8.20;2.25;;;;;;;12.33;100.00;100195.56;5029281;28;20049;-64
2023/07/24 02:14:43;;;;;;;6.57;1.92;;;;;;;12.18;100.00;100185.03;5030154;28;20064;-64
2023/07/24 02:17:09;;;;;;;6.07;1.63;;;;;;;12.06;100.00;100158.53;5026857;28;20046;-64
2023/07/24 02:19:36;;;;;;;10.48;2.03;;;;;;;12.11;100.00;100192.38;5029829;28;20586;-64
2023/07/24 02:22:03;;;;;;;6.80;2.25;;;;;;;12.07;100.00;100172.47;5024757;28;20053;-65
2023/07/24 02:24:30;;;;;;;5.97;1.60;;;;;;;12.07;100.00;100189.06;5023144;28;20085;-65
2023/07/24 02:26:57;;;;;;;6.43;1.65;;;;;;;12.12;100.00;100188.84;5024067;28;20095;-64
2023/07/24 02:29:24;;;;;;;5.55;1.48;;;;;;;12.20;100.00;100177.91;5032646;28;20052;-64
2023/07/24 02:31:50;;;;;;;6.32;1.60;;;;;;;12.26;100.00;100188.94;5023462;28;20045;-64
2023/07/24 02:34:17;;;;;;;6.28;1.70;;;;;;;12.28;100.00;100187.09;5031396;28;20045;-64
2023/07/24 02:36:44;;;;;;;9.25;2.33;;;;;;;12.05;100.00;100193.56;5030200;28;20065;-64
2023/07/24 02:39:10;;;;;;;9.05;1.77;;;;;;;12.08;100.00;100185.53;5029650;28;20055;-64
2023/07/24 02:41:37;;;;;;;6.07;1.52;;;;;;;12.18;100.00;100177.16;5028681;28;20387;-63
2023/07/24 02:44:04;;;;;;;6.50;1.63;;;;;;;12.03;100.00;100187.53;5029960;28;20139;-64
2023/07/24 02:46:31;;;;;;;6.57;1.63;;;;;;;12.15;100.00;100189.53;5029672;28;20052;-64
2023/07/24 02:48:58;;;;;;;7.75;2.15;;;;;;;12.03;100.00;100179.66;5029771;28;20487;-64
2023/07/24 02:51:25;;;;;;;5.95;1.75;;;;;;;11.75;100.00;100183.69;5018229;28;20056;-64
2023/07/24 02:53:54;;;;;;;5.30;1.75;;;;;;;11.85;100.00;100178.81;5028780;28;20049;-64
2023/07/24 02:56:21;;;;;;;8.55;1.98;;;;;;;11.75;100.00;100178.44;5028986;28;20533;-64
2023/07/24 02:58:48;;;;;;;6.68;1.67;;;;;;;11.86;100.00;100184.91;5021431;28;20404;-64
2023/07/24 03:01:15;;;;;;;7.10;2.08;;;;;;;11.73;100.00;100179.47;5030872;28;20060;-64
2023/07/24 03:03:41;;;;;;;9.13;2.10;;;;;;;11.68;100.00;100165.72;5029744;28;20128;-64
2023/07/24 03:06:08;;;;;;;5.85;1.70;;;;;;;11.46;100.00;100156.34;5029760;28;20049;-64
2023/07/24 03:08:35;;;;;;;5.25;1.77;;;;;;;11.71;100.00;100170.81;5029377;28;20410;-64
2023/07/24 03:11:05;;;;;;;8.75;1.95;;;;;;;11.45;100.00;100148.53;5024997;28;20075;-64
2023/07/24 03:13:31;;;;;;;6.18;1.67;;;;;;;11.51;100.00;100167.44;5028695;28;20053;-64
2023/07/24 03:15:58;;;;;;;7.95;2.00;;;;;;;11.78;100.00;100173.03;5029463;28;20079;-64
2023/07/24 03:18:25;;;;;;;8.45;1.73;;;;;;;11.79;100.00;100160.75;5028553;28;20056;-64
2023/07/24 03:20:52;;;;;;;9.13;2.03;;;;;;;11.76;100.00;100166.19;5023654;28;20054;-64
2023/07/24 03:23:20;;;;;;;11.20;2.08;;;;;;;11.78;100.00;100182.69;5028029;28;20054;-64
2023/07/24 03:25:46;;;;;;;13.82;3.10;;;;;;;11.92;100.00;100177.59;5028957;28;20060;-64
2023/07/24 03:28:13;;;;;;;7.05;1.60;;;;;;;11.88;100.00;100170.81;5029317;28;20136;-64
2023/07/24 03:30:40;;;;;;;8.23;1.80;;;;;;;12.11;100.00;100177.50;5028196;28;20136;-64
2023/07/24 03:33:07;;;;;;;7.22;2.13;;;;;;;12.10;100.00;100188.91;5011139;28;20099;-64
2023/07/24 03:35:33;;;;;;;11.43;1.90;;;;;;;12.06;100.00;100184.75;5027284;28;20063;-64
2023/07/24 03:38:00;;;;;;;5.07;1.75;;;;;;;12.06;100.00;100184.75;5008870;28;20038;-64
2023/07/24 03:40:27;;;;;;;8.90;1.85;;;;;;;12.28;100.00;100192.34;5013058;28;20053;-64
2023/07/24 03:42:53;;;;;;;4.38;1.23;;;;;;;12.31;100.00;100192.19;5028156;28;20049;-64
2023/07/24 03:45:20;;;;;;;7.55;1.60;;;;;;;12.14;100.00;100192.22;5028831;28;20053;-64
2023/07/24 03:47:47;;;;;;;9.35;1.98;;;;;;;12.11;100.00;100190.63;5028403;28;20137;-64
2023/07/24 03:50:14;;;;;;;6.03;1.70;;;;;;;12.07;100.00;100188.22;5019616;28;20144;-64
2023/07/24 03:52:40;;;;;;;7.25;1.60;;;;;;;11.96;100.00;100186.16;5024698;28;20133;-64
2023/07/24 03:55:07;;;;;;;5.20;1.67;;;;;;;11.92;100.00;100187.25;5028612;28;20064;-65
2023/07/24 03:57:34;;;;;;;7.05;1.60;;;;;;;12.09;100.00;100195.09;5019108;28;20049;-64
2023/07/24 04:00:02;;;;;;;3.55;1.48;;;;;;;12.07;100.00;100178.56;5032043;28;20053;-64
2023/07/24 04:02:28;;;;;;;4.53;1.38;;;;;;;12.10;100.00;100180.19;5029795;28;20049;-64
2023/07/24 04:04:55;;;;;;;4.05;1.42;;;;;;;12.07;100.00;100175.09;5016870;28;20072;-64
2023/07/24 04:07:22;;;;;;;6.75;1.38;;;;;;;12.31;100.00;100186.09;5030677;28;20479;-64
2023/07/24 04:09:48;;;;;;;5.50;1.45;;;;;;;12.24;100.00;100196.06;5031029;28;20045;-64
2023/07/24 04:12:15;;;;;;;4.25;1.33;;;;;;;12.37;100.00;100198.88;5029617;28;20049;-64
2023/07/24 04:14:42;;;;;;;7.10;1.50;;;;;;;12.28;100.00;100188.88;5032804;28;20459;-64
2023/07/24 04:17:08;;;;;;;7.10;1.60;;;;;;;12.37;100.00;100196.25;5032617;28;20494;-64
2023/07/24 04:19:35;;;;;;;5.10;1.38;;;;;;;12.09;100.00;100144.38;5032359;28;20497;-64
2023/07/24 04:22:02;;;;;;;6.00;1.60;;;;;;;12.10;100.00;100188.06;5020146;28;20148;-64
2023/07/24 04:24:29;;;;;;;9.40;1.90;;;;;;;12.18;100.00;100180.63;5032470;28;20049;-64
2023/07/24 04:26:55;;;;;;;6.07;2.05;;;;;;;12.23;100.00;100183.84;5030242;28;20455;-64
2023/07/24 04:29:24;;;;;;;7.00;1.65;;;;;;;12.26;100.00;100195.97;5027731;28;20049;-65
2023/07/24 04:31:51;;;;;;;7.13;1.85;;;;;;;12.34;100.00;100199.91;5029788;28;20057;-65
2023/07/24 04:34:17;;;;;;;5.63;1.42;;;;;;;12.28;100.00;100202.00;5031655;28;20411;-63
2023/07/24 04:36:44;;;;;;;6.93;2.13;;;;;;;12.34;100.00;100183.28;5031655;28;20050;-63
2023/07/24 04:39:11;;;;;;;4.65;1.50;;;;;;;12.68;100.00;100199.84;5028796;28;20046;-63
2023/07/24 04:41:37;;;;;;;3.53;1.23;;;;;;;12.50;100.00;100205.16;5025247;28;20049;-63
2023/07/24 04:44:04;;;;;;;5.05;1.30;;;;;;;12.38;100.00;100199.72;5031718;28;20049;-63
2023/07/24 04:46:31;;;;;;;5.07;1.30;;;;;;;12.53;100.00;100201.50;5031382;28;20055;-64
2023/07/24 04:48:58;;;;;;;6.95;1.42;;;;;;;12.32;100.00;100204.38;5031137;28;20050;-64
2023/07/24 04:51:24;;;;;;;5.13;1.30;;;;;;;12.32;100.00;100207.00;5023970;28;20049;-65
2023/07/24 04:53:51;;;;;;;5.05;1.33;;;;;;;12.56;100.00;100208.41;5031924;28;20491;-64
2023/07/24 04:56:18;;;;;;;4.22;1.30;;;;;;;12.56;100.00;100198.72;5018420;28;20052;-64
2023/07/24 04:58:44;;;;;;;4.55;1.58;;;;;;;12.65;100.00;100211.34;5032588;28;20057;-63
2023/07/24 05:01:11;;;;;;;5.70;1.10;;;;;;;12.54;100.00;100211.09;5024225;28;20057;-63
2023/07/24 05:03:38;;;;;;;6.30;1.42;;;;;;;12.42;100.00;100209.97;5021256;28;20232;-63
2023/07/24 05:06:05;;;;;;;5.35;1.23;;;;;;;12.18;100.00;100182.41;5031737;28;20067;-64
2023/07/24 05:08:31;;;;;;;3.80;1.20;;;;;;;12.53;100.00;100209.41;5031694;28;20057;-64
2023/07/24 05:10:58;;;;;;;4.53;1.30;;;;;;;12.48;100.00;100212.28;5018894;28;20072;-64
2023/07/24 05:13:26;;;;;;;6.45;1.40;;;;;;;12.28;100.00;100202.00;5018125;28;20506;-64
2023/07/24 05:15:53;;;;;;;5.65;1.23;;;;;;;12.33;100.00;100200.81;5017985;28;20112;-65
2023/07/24 05:18:20;;;;;;;6.63;1.50;;;;;;;12.30;100.00;100189.63;5012353;28;20053;-64
2023/07/24 05:20:48;;;;;;;5.47;1.55;;;;;;;12.51;100.00;100206.00;5020607;28;20415;-64
2023/07/24 05:23:15;;;;;;;9.05;1.63;;;;;;;12.48;100.00;100196.53;5028173;28;20131;-64
2023/07/24 05:25:43;;;;;;;6.57;1.55;;;;;;;12.48;100.00;100207.03;5031594;28;20053;-63
2023/07/24 05:28:10;;;;;;;6.38;1.25;;;;;;;12.39;100.00;100204.88;5031361;28;20067;-64
2023/07/24 05:30:36;;;;;;;5.80;1.60;;;;;;;12.26;100.00;100207.31;5036705;28;20388;-64
2023/07/24 05:33:03;;;;;;;5.30;1.27;;;;;;;12.13;100.00;100159.06;5031467;28;20071;-64
2023/07/24 05:35:30;;;;;;;6.40;1.40;;;;;;;12.43;100.00;100216.94;5016905;28;20409;-64
2023/07/24 05:37:56;;;;;;;3.55;1.13;;;;;;;12.50;100.00;100212.19;5030151;28;20448;-64
2023/07/24 05:40:23;;;;;;;7.15;1.50;;;;;;;12.51;100.00;100217.34;5028919;28;20042;-64
2023/07/24 05:42:50;;;;;;;4.68;1.25;;;;;;;12.61;100.00;100222.13;5030687;28;20115;-64
2023/07/24 05:45:17;;;;;;;5.35;1.30;;;;;;;12.64;100.00;100216.69;5030212;28;20491;-63
2023/07/24 05:47:43;;;;;;;7.45;1.48;;;;;;;12.50;100.00;100217.44;5030892;28;20140;-64
2023/07/24 05:50:13;;;;;;;3.45;1.35;;;;;;;12.62;100.00;100218.56;5028107;28;20104;-64
2023/07/24 05:52:40;;;;;;;3.63;1.40;;;;;;;12.50;100.00;100209.56;5023178;28;20060;-64
2023/07/24 05:55:08;;;;;;;3.85;1.20;;;;;;;12.34;100.00;100181.53;5022106;28;20096;-64
2023/07/24 05:57:35;;;;;;;6.13;1.25;;;;;;;12.67;100.00;100211.28;5030223;28;20132;-64
2023/07/24 06:00:05;;;;;;;4.47;1.40;;;;;;;12.62;100.00;100206.25;5031186;28;20574;-64
2023/07/24 06:02:32;;;;;;;7.28;1.80;;;;;;;12.56;100.00;100211.88;5025983;28;20512;-64
2023/07/24 06:04:59;;;;;;;5.45;1.42;;;;;;;12.61;100.00;100209.00;5030942;28;20461;-64
2023/07/24 06:07:25;;;;;;;6.25;1.20;;;;;;;12.64;100.00;100198.31;5030057;28;20048;-64
2023/07/24 06:09:52;;;;;;;4.50;1.10;;;;;;;12.77;100.00;100195.88;5028079;28;20049;-64
2023/07/24 06:12:18;;;;;;;5.00;1.30;;;;;;;12.65;100.00;100202.63;5028006;28;20049;-64
2023/07/24 06:14:45;;;;;;;4.22;1.35;;;;;;;12.76;100.00;100196.78;5030493;28;20049;-64
2023/07/24 06:17:12;;;;;;;3.03;1.00;;;;;;;12.70;100.00;100201.44;5017284;28;20302;-64
2023/07/24 06:19:38;;;;;;;8.90;1.70;;;;;;;12.79;100.00;100196.63;5016481;28;20045;-64
2023/07/24 06:22:05;;;;;;;6.60;1.65;;;;;;;12.90;100.00;100199.50;5011217;28;20128;-64
2023/07/24 06:24:32;;;;;;;6.45;1.40;;;;;;;12.73;100.00;100193.41;5023523;28;20148;-64
2023/07/24 06:26:58;;;;;;;4.30;1.33;;;;;;;12.76;100.00;100191.53;5017109;28;20056;-64
2023/07/24 06:29:25;;;;;;;4.80;1.20;;;;;;;12.61;100.00;100201.13;5028835;28;20049;-65
2023/07/24 06:31:52;;;;;;;3.40;1.27;;;;;;;12.86;100.00;100187.47;5028727;28;20506;-64
2023/07/24 06:34:19;;;;;;;5.03;1.52;;;;;;;12.96;100.00;100198.31;5027348;28;20494;-64
2023/07/24 06:36:45;;;;;;;7.60;1.92;;;;;;;12.99;100.00;100191.09;5003169;28;20052;-65
2023/07/24 06:39:12;;;;;;;7.72;1.58;;;;;;;12.94;100.00;100203.63;5030990;28;20041;-65
2023/07/24 06:41:39;;;;;;;3.20;1.20;;;;;;;12.91;100.00;100207.28;5026747;28;20144;-65
2023/07/24 06:44:05;;;;;;;6.25;1.45;;;;;;;12.97;100.00;100192.97;5028929;28;20507;-65
2023/07/24 06:46:32;;;;;;;3.45;1.00;;;;;;;13.14;100.00;100202.53;5035379;28;20049;-65
2023/07/24 06:48:59;;;;;;;4.40;1.42;;;;;;;13.06;100.00;100207.38;5023619;28;20439;-64
2023/07/24 06:51:26;;;;;;;5.30;1.38;;;;;;;13.14;100.00;100207.78;5027838;28;20060;-64
2023/07/24 06:53:52;;;;;;;5.95;1.40;;;;;;;13.02;100.00;100197.97;5036818;28;20487;-65
2023/07/24 06:56:19;;;;;;;4.53;1.50;;;;;;;13.11;100.00;100197.44;5030407;28;20057;-65
2023/07/24 06:58:45;;;;;;;5.25;1.55;;;;;;;13.46;100.00;100213.03;5021053;28;20737;-65
2023/07/24 07:01:12;;;;;;;5.25;1.30;;;;;;;13.24;100.00;100200.22;5012905;28;20459;-64
2023/07/24 07:03:39;;;;;;;3.63;1.20;;;;;;;13.23;100.00;100196.75;5020391;28;20084;-64
2023/07/24 07:06:06;;;;;;;7.05;1.50;;;;;;;13.22;100.00;100181.06;5030464;28;20046;-64
2023/07/24 07:08:33;;;;;;;4.07;1.10;;;;;;;13.68;100.00;100192.41;5029058;28;20077;-64
2023/07/24 07:11:01;;;;;;;5.38;1.20;;;;;;;14.56;100.00;100186.22;5024919;28;20049;-65
2023/07/24 07:13:27;;;;;;;4.80;1.25;;;;;;;14.66;100.00;100195.28;5030589;28;20088;-64
2023/07/24 07:15:54;;;;;;;5.80;1.15;;;;;;;15.01;100.00;100205.34;5032333;28;20049;-64
2023/07/24 07:18:21;;;;;;;6.05;1.30;;;;;;;15.14;100.00;100208.06;5028867;28;20488;-64
2023/07/24 07:20:49;;;;;;;3.92;1.13;;;;;;;15.59;100.00;100197.19;5029997;28;20136;-64
2023/07/24 07:23:16;;;;;;;2.15;0.90;;;;;;;16.22;100.00;100198.19;5031600;28;20311;-64
2023/07/24 07:25:45;;;;;;;3.55;1.00;;;;;;;16.24;100.00;100201.59;5045632;28;20053;-64
2023/07/24 07:28:16;;;;;;;2.75;0.98;;;;;;;16.46;100.00;100201.75;5011646;28;20056;-65
2023/07/24 07:30:43;;;;;;;4.93;1.30;;;;;;;16.58;100.00;100215.06;5028804;28;20124;-65
2023/07/24 07:33:11;;;;;;;4.00;1.20;;;;;;;16.43;100.00;100201.97;5029085;28;20060;-65
2023/07/24 07:35:38;;;;;;;1.60;0.70;;;;;;;16.38;100.00;100203.22;5009591;28;20499;-65
2023/07/24 07:38:05;;;;;;;4.10;0.95;;;;;;;16.07;100.00;100200.94;5025378;28;20065;-65
2023/07/24 07:40:31;;;;;;;2.40;0.80;;;;;;;16.30;100.00;100209.91;5025134;28;20380;-65
2023/07/24 07:43:00;;;;;;;2.67;0.85;;;;;;;16.73;100.00;100202.53;5026209;28;20053;-65
2023/07/24 07:45:26;;;;;;;1.75;0.77;;;;;;;16.63;100.00;100208.50;5024015;28;20136;-65
2023/07/24 07:47:53;;;;;;;2.35;0.70;;;;;;;16.95;100.00;100197.41;5026578;28;20059;-63
2023/07/24 07:50:20;;;;;;;2.13;0.60;;;;;;;17.25;100.00;100206.72;5022625;28;20060;-63
2023/07/24 07:52:51;;;;;;;2.35;0.70;;;;;;;17.01;100.00;100206.69;5026979;28;20068;-64
2023/07/24 07:55:18;;;;;;;2.65;0.70;;;;;;;16.55;100.00;100217.91;5022173;28;20057;-64
2023/07/24 07:57:45;;;;;;;3.90;0.80;;;;;;;16.28;100.00;100216.25;5021195;28;20045;-64
2023/07/24 08:00:12;;;;;;;1.20;0.60;;;;;;;16.34;100.00;100218.47;5027046;28;20047;-64
2023/07/24 08:02:39;;;;;;;3.42;0.80;;;;;;;16.40;100.00;100209.28;5009541;28;20471;-64
2023/07/24 08:05:10;;;;;;;2.25;0.60;;;;;;;16.58;100.00;100223.81;5029358;28;20065;-64
2023/07/24 08:07:46;;;;;;;2.53;0.73;;;;;;;16.38;100.00;100205.88;5031433;28;20092;-64
2023/07/24 08:10:14;;;;;;;3.92;0.80;;;;;;;15.86;100.00;100224.38;5027446;28;20041;-64
2023/07/24 08:12:43;;;;;;;1.88;0.70;;;;;;;15.29;100.00;100219.38;5018556;28;20442;-64
2023/07/24 08:15:10;;;;;;;1.95;0.68;;;;;;;15.44;100.00;100235.97;5030366;28;20467;-64
2023/07/24 08:17:37;;;;;;;2.85;0.75;;;;;;;15.16;100.00;100221.97;5022192;28;20050;-64
2023/07/24 08:20:05;;;;;;;1.83;0.60;;;;;;;15.10;100.00;100227.63;5016136;28;20422;-64
2023/07/24 08:22:31;;;;;;;1.30;0.60;;;;;;;15.08;100.00;100222.44;5018917;28;20046;-64
2023/07/24 08:24:58;;;;;;;2.08;0.88;;;;;;;14.90;100.00;100218.38;5028893;28;20041;-65
2023/07/24 08:27:25;;;;;;;2.88;0.88;;;;;;;15.04;100.00;100222.75;5007316;28;20049;-64
2023/07/24 08:29:52;;;;;;;1.92;0.70;;;;;;;15.12;100.00;100233.66;5026917;28;20131;-65
2023/07/24 08:32:20;;;;;;;1.98;0.85;;;;;;;14.54;100.00;100211.81;5025402;28;20056;-65
2023/07/24 08:34:47;;;;;;;4.07;0.85;;;;;;;14.89;100.00;100230.72;5014894;28;20499;-65
2023/07/24 08:37:13;;;;;;;1.77;0.70;;;;;;;14.38;100.00;100228.56;5025344;28;20562;-65
2023/07/24 08:39:41;;;;;;;3.10;1.10;;;;;;;14.51;100.00;100228.66;5012263;28;20484;-64
2023/07/24 08:42:12;;;;;;;1.20;0.70;;;;;;;14.36;100.00;100225.19;5026352;28;20088;-64
2023/07/24 08:44:39;;;;;;;6.10;1.00;;;;;;;14.33;100.00;100228.00;5020589;28;20780;-65
2023/07/24 08:47:13;;;;;;;1.42;0.80;;;;;;;14.21;100.00;100226.97;5025490;28;20049;-64
2023/07/24 08:49:42;;;;;;;4.07;0.98;;;;;;;14.43;100.00;100226.50;5026978;28;20045;-65
2023/07/24 08:52:11;;;;;;;3.97;1.23;;;;;;;14.90;100.00;100226.28;5035287;28;20056;-64
2023/07/24 08:55:02;;;;;;;1.65;0.70;;;;;;;14.31;100.00;100227.25;5017974;28;20395;-64
2023/07/24 08:57:29;;;;;;;2.35;0.80;;;;;;;14.53;100.00;100220.66;5034361;28;20053;-65
2023/07/24 08:59:57;;;;;;;2.50;0.90;;;;;;;14.69;100.00;100216.16;5028214;28;20046;-64
2023/07/24 09:02:24;;;;;;;4.40;1.40;;;;;;;14.74;100.00;100205.31;5031343;28;20144;-64
2023/07/24 09:04:51;;;;;;;6.10;1.10;;;;;;;14.91;100.00;100199.84;5031448;28;20088;-65
2023/07/24 09:07:19;;;;;;;2.17;0.90;;;;;;;14.76;100.00;100199.00;5029402;28;20045;-64
2023/07/24 09:09:50;;;;;;;2.80;0.90;;;;;;;14.75;100.00;100204.38;5031359;28;20045;-65
2023/07/24 09:12:16;;;;;;;2.30;0.80;;;;;;;14.88;100.00;100199.19;5022978;28;20050;-65
2023/07/24 09:14:45;;;;;;;6.35;1.27;;;;;;;14.93;100.00;100197.09;5037243;28;20415;-63
2023/07/24 09:17:12;;;;;;;2.88;0.95;;;;;;;15.33;100.00;100203.25;5030131;28;20166;-63
2023/07/24 09:19:39;;;;;;;4.20;1.10;;;;;;;15.23;100.00;100188.13;5026860;28;20069;-63
2023/07/24 09:22:14;;;;;;;2.40;0.90;;;;;;;15.61;100.00;100197.94;5026609;28;20053;-64
2023/07/24 09:24:55;;;;;;;2.63;0.95;;;;;;;15.13;100.00;100201.06;5013555;28;20049;-65
2023/07/24 09:27:27;;;;;;;2.33;1.05;;;;;;;15.31;100.00;100196.38;5034032;28;20570;-64
2023/07/24 09:29:55;;;;;;;2.28;0.98;;;;;;;15.88;100.00;100190.81;5035454;28;20053;-64
2023/07/24 09:32:27;;;;;;;3.05;0.85;;;;;;;16.07;100.00;100202.75;5044739;28;20402;-64
2023/07/24 09:34:54;;;;;;;2.60;0.93;;;;;;;15.84;100.00;100196.41;5016523;28;20124;-64
2023/07/24 09:37:31;;;;;;;3.10;0.95;;;;;;;15.71;100.00;100205.13;5029928;28;20049;-64
2023/07/24 09:40:04;;;;;;;1.70;0.70;;;;;;;15.63;100.00;100188.13;5029387;28;20522;-64
2023/07/24 09:42:32;;;;;;;1.88;0.73;;;;;;;15.43;100.00;100192.09;5029474;28;20743;-65
2023/07/24 09:45:04;;;;;;;7.03;1.02;;;;;;;16.01;100.00;100195.25;5012631;28;20045;-65
2023/07/24 09:47:32;;;;;;;1.52;0.80;;;;;;;15.82;100.00;100198.31;5043019;28;20049;-65
2023/07/24 09:50:19;;;;;;;1.80;0.70;;;;;;;15.79;100.00;100187.94;5018059;28;20047;-65
2023/07/24 09:52:47;;;;;;;2.35;0.82;;;;;;;15.43;100.00;100198.22;5029641;28;20056;-65
2023/07/24 09:55:30;;;;;;;3.97;0.75;;;;;;;15.98;100.00;100193.66;5017412;28;20644;-65
2023/07/24 09:58:00;;;;;;;2.75;0.95;;;;;;;16.30;100.00;100191.41;5007265;28;20545;-65
2023/07/24 10:00:27;;;;;;;5.18;0.93;;;;;;;16.09;100.00;100190.28;5028303;28;20049;-66
2023/07/24 10:02:55;;;;;;;2.03;0.80;;;;;;;15.92;100.00;100200.22;5033343;28;20083;-65
2023/07/24 10:05:22;;;;;;;3.60;0.70;;;;;;;16.10;100.00;100215.75;5039189;28;20046;-65
2023/07/24 10:07:51;;;;;;;2.85;0.90;;;;;;;15.73;100.00;100208.50;5028365;28;20140;-65
2023/07/24 10:10:18;;;;;;;2.38;0.90;;;;;;;15.62;100.00;100200.47;5026972;28;20483;-65
2023/07/24 10:12:45;;;;;;;2.40;0.88;;;;;;;15.85;100.00;100196.31;5029839;28;20480;-64
2023/07/24 10:15:12;;;;;;;3.65;1.00;;;;;;;15.44;100.00;100205.19;5031567;28;20053;-65
2023/07/24 10:17:41;;;;;;;3.72;1.10;;;;;;;15.10;100.00;100203.91;5030060;28;20045;-64
2023/07/24 10:20:10;;;;;;;2.92;0.80;;;;;;;15.40;100.00;100211.59;5027959;28;20531;-65
2023/07/24 10:22:41;;;;;;;2.65;0.90;;;;;;;15.31;100.00;100212.19;5029168;28;20050;-64
2023/07/24 10:25:09;;;;;;;3.53;1.00;;;;;;;15.30;100.00;100211.38;5033357;28;20509;-64
2023/07/24 10:27:43;;;;;;;1.25;0.70;;;;;;;15.38;100.00;100198.50;5029612;28;20479;-65
2023/07/24 10:30:11;;;;;;;4.45;0.98;;;;;;;15.49;100.00;100208.38;5026836;28;20076;-65
2023/07/24 10:33:10;;;;;;;1.48;0.90;;;;;;;16.10;100.00;100197.25;5027968;28;20049;-65
2023/07/24 10:36:08;;;;;;;2.53;0.90;;;;;;;16.43;100.00;100207.25;5034603;28;20049;-65
2023/07/24 10:38:37;;;;;;;2.40;0.90;;;;;;;16.25;100.00;100204.09;5029626;28;20049;-65
2023/07/24 10:41:08;;;;;;;5.63;1.00;;;;;;;16.18;100.00;100199.34;5026711;28;20053;-65
2023/07/24 10:43:52;;;;;;;4.03;0.90;;;;;;;16.24;100.00;100212.16;5028822;28;20057;-66
2023/07/24 10:46:19;;;;;;;;;;;;;;;15.88;100.00;100208.44;5031021;28;20045;-65
2023/07/24 10:48:51;;;;;;;2.25;0.90;;;;;;;16.11;100.00;100194.50;5029633;28;19932;-65
2023/07/24 10:51:18;;;;;;;2.55;0.90;;;;;;;16.31;100.00;100197.56;5025147;28;20050;-65
2023/07/24 10:53:47;;;;;;;1.35;0.70;;;;;;;16.74;100.00;100206.88;5037359;28;20051;-63
2023/07/24 10:56:16;;;;;;;2.97;1.00;;;;;;;16.33;100.00;100193.00;5011466;28;20049;-65
2023/07/24 10:58:43;;;;;;;2.42;0.95;;;;;;;16.29;100.00;100202.94;5027833;28;20487;-64
2023/07/24 11:01:10;;;;;;;2.00;0.80;;;;;;;16.07;100.00;100200.09;5023847;28;20062;-65
2023/07/24 11:03:42;;;;;;;1.83;0.90;;;;;;;16.29;100.00;100202.13;5028387;28;20467;-65
2023/07/24 11:06:16;;;;;;;2.58;0.75;;;;;;;15.57;100.00;100202.56;5033819;28;20064;-65
2023/07/24 11:09:03;;;;;;;1.65;0.73;;;;;;;15.94;100.00;100210.66;5027626;28;20049;-65
2023/07/24 11:11:35;;;;;;;3.47;1.00;;;;;;;15.82;100.00;100214.16;5025157;28;20046;-65
2023/07/24 11:14:03;;;;;;;1.73;0.70;;;;;;;15.50;100.00;100211.84;5029376;28;20148;-65
2023/07/24 11:16:32;;;;;;;1.02;0.60;;;;;;;15.44;100.00;100215.75;5033043;28;20045;-64
2023/07/24 11:19:00;;;;;;;0.60;0.60;;;;;;;15.22;100.00;100195.19;5029932;28;20139;-65
2023/07/24 11:21:26;;;;;;;3.22;1.25;;;;;;;15.50;100.00;100222.41;5021847;28;20057;-65